Time;durP1;ratioP1;P1;durP2;ratioP2;P2;SDS_P1;SDS_P2;PMS_P1;PMS_P2;Temp;Humidity;BMP_temperature;BMP_pressure;BME280_temperature;BME280_humidity;BME280_pressure;Samples;Min_cycle;Max_cycle;Signal;HPM_P1;HPM_P2
2021/08/01 00:00:52;;;;;;;9.10;7.60;;;;;;;16.46;76.94;99713.84;91491;1242;86219;-62
2021/08/01 00:03:08;;;;;;;9.30;7.00;;;;;;;16.42;77.04;99712.70;91503;1242;74711;-60
2021/08/01 00:05:16;;;;;;;12.00;7.70;;;;;;;16.41;77.03;99719.21;91491;1242;81414;-59
2021/08/01 00:07:23;;;;;;;11.10;7.30;;;;;;;16.44;77.07;99707.82;91506;1242;66238;-59
2021/08/01 00:09:34;;;;;;;8.50;6.80;;;;;;;16.36;76.96;99710.94;91495;1242;69186;-60
2021/08/01 00:11:41;;;;;;;9.10;7.00;;;;;;;16.33;77.02;99725.89;91425;1242;86687;-59
2021/08/01 00:13:49;;;;;;;12.80;6.90;;;;;;;16.29;77.14;99718.41;91472;1244;76074;-58
2021/08/01 00:15:58;;;;;;;9.40;6.80;;;;;;;16.18;77.51;99716.59;91483;1242;82649;-59
2021/08/01 00:18:06;;;;;;;10.10;7.70;;;;;;;16.24;77.24;99724.61;91492;1242;66822;-59
2021/08/01 00:20:15;;;;;;;8.60;7.00;;;;;;;16.23;77.54;99711.23;91497;1242;69162;-59
2021/08/01 00:22:24;;;;;;;8.60;7.00;;;;;;;16.25;77.27;99726.27;91542;1242;85824;-64
2021/08/01 00:24:32;;;;;;;10.90;7.90;;;;;;;16.22;77.39;99725.92;91472;1242;73866;-64
2021/08/01 00:26:39;;;;;;;9.60;7.10;;;;;;;16.25;77.22;99730.89;91473;1242;82019;-62
2021/08/01 00:28:47;;;;;;;8.80;6.90;;;;;;;16.22;77.11;99731.38;91496;1242;68108;-65
2021/08/01 00:30:55;;;;;;;8.10;7.00;;;;;;;16.22;77.27;99731.38;91472;1246;68450;-64
2021/08/01 00:33:02;;;;;;;9.80;6.60;;;;;;;16.17;77.28;99734.00;91506;1242;86314;-62
2021/08/01 00:35:12;;;;;;;9.40;7.00;;;;;;;16.15;77.35;99736.15;91505;1242;75768;-64
2021/08/01 00:37:19;;;;;;;8.80;7.10;;;;;;;16.06;77.54;99738.42;91501;1242;80168;-64
2021/08/01 00:39:28;;;;;;;11.60;6.70;;;;;;;16.04;77.40;99742.45;91471;1242;67688;-63
2021/08/01 00:41:37;;;;;;;9.70;7.30;;;;;;;16.02;77.55;99741.84;91444;1242;68836;-61
2021/08/01 00:43:45;;;;;;;10.90;6.70;;;;;;;15.98;77.55;99741.52;91505;1242;86198;-58
2021/08/01 00:45:53;;;;;;;11.10;7.40;;;;;;;15.97;77.45;99744.47;91487;1242;73988;-58
2021/08/01 00:48:01;;;;;;;10.30;7.40;;;;;;;15.95;77.46;99736.55;91648;1240;81932;-63
2021/08/01 00:50:12;;;;;;;10.20;6.90;;;;;;;15.92;77.61;99737.02;91652;1240;67443;-63
2021/08/01 00:52:20;;;;;;;12.50;7.30;;;;;;;15.89;77.52;99738.34;91669;1242;70463;-62
2021/08/01 00:54:27;;;;;;;8.00;6.90;;;;;;;15.89;77.54;99735.61;91650;1241;86511;-64
2021/08/01 00:56:35;;;;;;;8.40;7.10;;;;;;;15.88;77.74;99738.56;91700;1241;74831;-62
2021/08/01 00:58:46;;;;;;;13.40;7.60;;;;;;;15.81;77.93;99746.88;91589;1242;80161;-64
2021/08/01 01:01:10;;;;;;;12.20;6.80;;;;;;;15.84;77.93;99740.95;91657;1241;65707;-63
2021/08/01 01:03:22;;;;;;;9.20;7.50;;;;;;;15.85;77.77;99747.20;91648;1242;69214;-63
2021/08/01 01:05:40;;;;;;;9.50;6.90;;;;;;;15.86;77.84;99746.15;91670;1242;86346;-62
2021/08/01 01:07:57;;;;;;;9.10;7.00;;;;;;;15.86;77.88;99743.42;91644;1241;76037;-65
2021/08/01 01:10:09;;;;;;;12.00;7.90;;;;;;;15.87;77.99;99740.48;91653;1241;80663;-64
2021/08/01 01:12:21;;;;;;;9.60;7.30;;;;;;;15.89;77.86;99745.67;91636;1240;65586;-59
2021/08/01 01:14:34;;;;;;;8.50;7.20;;;;;;;15.90;77.91;99745.42;91743;1242;69403;-58
2021/08/01 01:16:48;;;;;;;12.90;8.20;;;;;;;15.94;78.07;99759.40;91667;1241;86077;-63
2021/08/01 01:19:01;;;;;;;8.90;7.10;;;;;;;15.96;78.20;99754.53;91637;1241;74522;-62
2021/08/01 01:21:35;;;;;;;9.50;7.40;;;;;;;16.00;78.29;99752.16;91543;1243;81014;-63
2021/08/01 01:23:49;;;;;;;10.60;7.10;;;;;;;16.01;78.40;99740.21;91674;1241;65853;-63
2021/08/01 01:26:03;;;;;;;9.60;6.80;;;;;;;16.01;78.15;99751.11;91677;1240;70185;-64
2021/08/01 01:28:19;;;;;;;9.40;7.40;;;;;;;15.98;78.36;99752.42;91672;1240;85333;-60
2021/08/01 01:30:29;;;;;;;8.60;7.50;;;;;;;15.91;78.16;99751.70;91609;1242;76044;-62
2021/08/01 01:32:42;;;;;;;9.00;7.70;;;;;;;15.88;78.09;99739.39;91540;1242;81501;-64
2021/08/01 01:34:55;;;;;;;;;;;;;;;15.83;78.12;99747.45;91655;1242;65558;-63
2021/08/01 01:37:06;;;;;;;11.10;7.80;;;;;;;15.74;78.26;99745.36;91669;1242;68341;-59
2021/08/01 01:39:15;;;;;;;9.30;7.10;;;;;;;15.69;78.11;99743.33;91663;1242;85768;-58
2021/08/01 01:41:24;;;;;;;9.40;7.20;;;;;;;15.63;78.19;99743.47;91653;1240;74716;-59
2021/08/01 01:43:35;;;;;;;10.70;7.00;;;;;;;15.56;78.29;99740.02;91640;1242;81854;-65
2021/08/01 01:45:44;;;;;;;9.90;7.30;;;;;;;15.54;78.36;99743.00;91660;1242;65762;-65
2021/08/01 01:47:52;;;;;;;8.80;7.00;;;;;;;15.51;78.49;99754.36;91676;1240;68394;-63
2021/08/01 01:50:02;;;;;;;9.50;7.00;;;;;;;15.51;78.51;99746.19;91668;1241;85457;-69
2021/08/01 01:52:11;;;;;;;8.20;7.10;;;;;;;15.49;78.85;99753.78;91663;1241;74471;-60
2021/08/01 01:54:19;;;;;;;11.50;7.60;;;;;;;15.57;78.86;99761.59;91672;1241;80371;-59
2021/08/01 01:56:30;;;;;;;8.70;7.50;;;;;;;15.61;78.71;99751.86;91651;1242;67082;-60
2021/08/01 01:58:38;;;;;;;9.70;7.50;;;;;;;15.62;78.69;99748.08;91691;1241;67643;-59
2021/08/01 02:00:47;;;;;;;10.20;7.20;;;;;;;15.62;78.72;99755.42;91671;1241;87047;-59
2021/08/01 02:02:54;;;;;;;9.10;7.50;;;;;;;15.52;78.71;99750.55;91635;1242;74708;-59
2021/08/01 02:05:02;;;;;;;10.10;7.20;;;;;;;15.48;78.52;99763.00;91669;1240;81585;-58
2021/08/01 02:07:12;;;;;;;10.30;8.40;;;;;;;15.45;78.55;99757.98;91655;1241;68705;-64
2021/08/01 02:09:33;;;;;;;10.60;8.00;;;;;;;15.43;78.61;99759.30;91682;1242;68037;-66
2021/08/01 02:11:49;;;;;;;11.00;8.30;;;;;;;15.36;78.93;99756.67;91671;1240;85500;-57
2021/08/01 02:14:07;;;;;;;10.00;8.00;;;;;;;15.32;78.80;99752.78;91600;1241;74165;-60
2021/08/01 02:16:15;;;;;;;10.90;8.10;;;;;;;15.30;78.87;99757.61;91655;1242;81825;-63
2021/08/01 02:18:30;;;;;;;10.00;8.10;;;;;;;15.34;78.91;99761.53;91602;1242;68077;-60
2021/08/01 02:20:44;;;;;;;9.00;8.00;;;;;;;15.35;78.88;99763.20;91673;1242;69051;-60
2021/08/01 02:22:54;;;;;;;9.60;7.80;;;;;;;15.35;79.00;99758.56;91644;1241;86128;-58
2021/08/01 02:25:05;;;;;;;10.20;7.60;;;;;;;15.38;79.04;99761.90;91674;1241;74514;-57
2021/08/01 02:27:13;;;;;;;9.40;7.70;;;;;;;15.36;79.06;99762.95;91663;1240;80241;-60
2021/08/01 02:29:22;;;;;;;11.60;8.00;;;;;;;15.29;78.93;99761.41;91614;1242;68500;-58
2021/08/01 02:31:31;;;;;;;10.60;7.00;;;;;;;15.27;78.93;99749.95;91629;1241;68232;-59
2021/08/01 02:33:40;;;;;;;9.10;6.90;;;;;;;15.25;79.01;99758.33;91715;1242;84816;-65
2021/08/01 02:35:49;;;;;;;9.20;6.80;;;;;;;15.23;78.81;99752.30;91691;1241;74686;-64
2021/08/01 02:38:00;;;;;;;8.10;6.90;;;;;;;15.20;78.83;99754.66;91647;1240;82187;-63
2021/08/01 02:40:11;;;;;;;9.70;7.00;;;;;;;15.19;78.88;99753.02;91686;1240;65245;-64
2021/08/01 02:42:20;;;;;;;11.50;7.80;;;;;;;15.20;78.89;99751.93;91704;1240;67516;-60
2021/08/01 02:44:32;;;;;;;9.30;6.90;;;;;;;15.19;79.16;99748.38;91659;1241;84563;-57
2021/08/01 02:46:43;;;;;;;9.50;7.30;;;;;;;15.16;79.04;99750.77;91423;1242;76159;-60
2021/08/01 02:48:53;;;;;;;9.00;7.90;;;;;;;15.13;79.12;99754.78;91658;1242;81117;-61
2021/08/01 02:51:05;;;;;;;9.40;7.40;;;;;;;15.16;79.37;99751.56;91639;1240;66985;-58
2021/08/01 02:53:16;;;;;;;8.70;7.50;;;;;;;15.16;79.16;99753.48;91647;1242;69232;-64
2021/08/01 02:55:25;;;;;;;9.30;7.80;;;;;;;15.18;79.39;99756.79;91665;1240;85150;-64
2021/08/01 02:57:34;;;;;;;9.30;7.20;;;;;;;15.18;79.07;99752.18;91656;1241;73676;-64
2021/08/01 02:59:43;;;;;;;10.40;7.20;;;;;;;15.21;79.29;99753.60;91660;1240;81602;-65
2021/08/01 03:01:54;;;;;;;8.20;7.00;;;;;;;15.26;79.24;99757.27;91667;1242;66135;-59
2021/08/01 03:04:03;;;;;;;8.60;6.70;;;;;;;15.29;79.34;99758.70;91636;1242;67621;-58
2021/08/01 03:06:13;;;;;;;10.00;7.90;;;;;;;15.29;79.32;99761.41;91668;1242;85779;-60
2021/08/01 03:08:21;;;;;;;12.00;7.60;;;;;;;15.28;79.26;99757.02;91638;1241;74249;-63
2021/08/01 03:10:29;;;;;;;9.90;7.30;;;;;;;15.31;79.27;99756.56;91643;1242;80780;-61
2021/08/01 03:12:43;;;;;;;11.20;7.10;;;;;;;15.29;79.30;99756.81;91635;1242;67678;-59
2021/08/01 03:14:51;;;;;;;9.60;7.10;;;;;;;15.30;79.47;99754.89;91713;1242;68392;-61
2021/08/01 03:17:00;;;;;;;9.30;6.70;;;;;;;15.29;79.61;99751.36;91527;1242;86314;-60
2021/08/01 03:19:08;;;;;;;8.20;7.00;;;;;;;15.29;79.27;99756.81;91646;1242;73599;-58
2021/08/01 03:21:16;;;;;;;7.60;6.70;;;;;;;15.29;79.42;99758.70;91651;1242;81440;-58
2021/08/01 03:23:23;;;;;;;11.30;6.90;;;;;;;15.27;79.47;99755.39;91617;1241;67579;-63
2021/08/01 03:25:34;;;;;;;9.40;7.20;;;;;;;15.28;79.38;99754.30;91660;1241;70464;-63
2021/08/01 03:27:42;;;;;;;8.20;6.80;;;;;;;15.30;79.33;99757.61;91613;1245;85360;-62
2021/08/01 03:29:49;;;;;;;9.60;6.70;;;;;;;15.30;79.38;99750.28;91674;1242;74399;-62
2021/08/01 03:31:57;;;;;;;12.00;7.50;;;;;;;15.25;79.44;99754.77;91668;1242;81269;-61
2021/08/01 03:34:04;;;;;;;15.10;7.00;;;;;;;15.27;79.46;99758.11;91529;1242;66984;-63
2021/08/01 03:36:12;;;;;;;7.90;7.10;;;;;;;15.29;79.37;99753.25;91671;1242;68381;-62
2021/08/01 03:38:19;;;;;;;12.20;7.00;;;;;;;15.36;79.51;99768.39;91628;1241;85428;-60
2021/08/01 03:40:28;;;;;;;10.30;7.10;;;;;;;15.44;79.49;99764.48;91655;1242;75610;-58
2021/08/01 03:42:36;;;;;;;9.60;6.70;;;;;;;15.48;79.48;99768.44;91634;1242;80410;-62
2021/08/01 03:44:46;;;;;;;11.90;7.30;;;;;;;15.56;79.55;99775.42;91577;1242;67082;-65
2021/08/01 03:46:54;;;;;;;8.90;7.30;;;;;;;15.63;79.49;99765.25;91628;1242;68480;-60
2021/08/01 03:49:01;;;;;;;9.10;6.70;;;;;;;15.69;79.76;99765.11;91663;1242;85577;-60
2021/08/01 03:51:09;;;;;;;9.20;6.60;;;;;;;15.80;79.52;99766.16;91644;1241;75520;-59
2021/08/01 03:53:19;;;;;;;8.90;7.20;;;;;;;15.89;79.72;99760.13;91636;1241;82093;-61
2021/08/01 03:55:27;;;;;;;10.20;7.20;;;;;;;16.07;79.52;99766.50;91655;1242;67570;-60
2021/08/01 03:57:34;;;;;;;9.00;6.40;;;;;;;16.25;79.26;99763.59;91668;1242;68007;-61
2021/08/01 03:59:42;;;;;;;8.20;6.00;;;;;;;16.39;79.17;99770.43;91595;1242;84872;-62
2021/08/01 04:01:52;;;;;;;8.10;6.20;;;;;;;16.55;79.10;99764.23;91673;1241;75707;-64
2021/08/01 04:04:00;;;;;;;10.90;7.00;;;;;;;16.60;78.72;99760.77;91649;1240;79911;-64
2021/08/01 04:06:09;;;;;;;9.70;6.60;;;;;;;16.56;78.38;99763.17;91638;1241;66038;-66
2021/08/01 04:08:16;;;;;;;8.80;6.20;;;;;;;16.56;78.30;99762.34;91664;1241;69971;-62
2021/08/01 04:10:24;;;;;;;7.20;6.30;;;;;;;16.52;78.50;99770.97;91617;1242;86267;-61
2021/08/01 04:12:32;;;;;;;10.00;6.00;;;;;;;16.57;78.47;99759.36;91522;1242;75530;-61
2021/08/01 04:14:39;;;;;;;8.70;5.80;;;;;;;16.72;78.76;99759.66;91626;1242;81605;-60
2021/08/01 04:16:47;;;;;;;11.20;6.60;;;;;;;16.85;78.49;99766.70;91657;1241;66940;-66
2021/08/01 04:18:55;;;;;;;9.10;5.90;;;;;;;17.01;78.52;99761.27;91605;1242;69045;-64
2021/08/01 04:21:11;;;;;;;10.60;6.70;;;;;;;17.20;78.50;99766.48;91665;1242;85828;-64
2021/08/01 04:23:18;;;;;;;7.50;6.00;;;;;;;17.35;78.11;99761.28;91657;1241;74380;-65
2021/08/01 04:25:26;;;;;;;8.40;6.10;;;;;;;17.48;78.21;99763.66;91632;1241;81694;-68
2021/08/01 04:27:34;;;;;;;9.10;6.10;;;;;;;17.63;77.88;99767.48;91666;1241;65536;-62
2021/08/01 04:29:41;;;;;;;8.30;6.60;;;;;;;17.77;77.69;99765.25;91634;1245;68859;-63
2021/08/01 04:31:49;;;;;;;8.50;6.10;;;;;;;17.88;77.61;99763.48;91634;1242;87439;-64
2021/08/01 04:33:56;;;;;;;9.90;6.30;;;;;;;17.97;77.29;99767.41;91632;1241;74620;-62
2021/08/01 04:36:04;;;;;;;7.90;5.70;;;;;;;18.12;77.04;99776.67;91635;1242;80533;-65
2021/08/01 04:38:12;;;;;;;9.00;5.60;;;;;;;18.14;76.85;99779.97;91648;1242;68045;-66
2021/08/01 04:40:20;;;;;;;7.70;6.00;;;;;;;18.13;76.74;99785.67;91647;1241;68984;-63
2021/08/01 04:42:27;;;;;;;7.40;6.10;;;;;;;18.14;76.86;99782.70;91625;1240;85768;-64
2021/08/01 04:44:35;;;;;;;9.70;6.10;;;;;;;18.24;76.63;99784.72;91641;1242;74609;-64
2021/08/01 04:46:42;;;;;;;8.60;5.70;;;;;;;18.37;76.66;99792.56;91616;1240;79922;-59
2021/08/01 04:48:50;;;;;;;7.20;5.70;;;;;;;18.51;76.50;99788.40;91638;1241;66915;-60
2021/08/01 04:50:57;;;;;;;7.20;5.70;;;;;;;18.66;76.18;99790.46;91638;1242;69721;-59
2021/08/01 04:53:05;;;;;;;9.60;5.40;;;;;;;18.84;76.05;99790.13;91647;1240;85895;-63
2021/08/01 04:55:14;;;;;;;9.00;6.30;;;;;;;18.97;75.66;99780.67;91681;1241;74716;-63
2021/08/01 04:57:22;;;;;;;8.90;5.70;;;;;;;18.93;75.55;99776.78;91651;1241;82513;-62
2021/08/01 04:59:29;;;;;;;6.50;5.70;;;;;;;18.87;75.42;99783.31;91616;1242;66328;-63
2021/08/01 05:01:37;;;;;;;6.40;5.80;;;;;;;18.88;75.59;99777.56;91654;1243;68303;-62
2021/08/01 05:03:45;;;;;;;6.90;5.80;;;;;;;18.94;75.41;99776.54;91610;1241;85644;-63
2021/08/01 05:05:52;;;;;;;9.00;6.00;;;;;;;19.15;75.15;99774.80;91633;1242;73953;-63
2021/08/01 05:08:00;;;;;;;9.10;5.70;;;;;;;19.68;75.61;99768.41;91604;1240;80266;-61
2021/08/01 05:10:09;;;;;;;9.00;6.40;;;;;;;20.38;74.80;99768.01;91549;1242;66381;-59
2021/08/01 05:12:20;;;;;;;10.10;5.70;;;;;;;20.88;73.54;99767.30;91674;1240;67565;-58
2021/08/01 05:14:29;;;;;;;7.60;5.60;;;;;;;21.42;72.70;99762.17;91623;1241;86058;-61
2021/08/01 05:16:36;;;;;;;7.30;5.80;;;;;;;21.48;71.73;99772.87;91621;1241;74414;-60
2021/08/01 05:18:44;;;;;;;10.30;6.30;;;;;;;21.73;71.53;99772.84;91535;1242;81830;-58
2021/08/01 05:20:52;;;;;;;8.20;6.20;;;;;;;22.13;70.11;99779.39;91629;1243;66514;-59
2021/08/01 05:22:59;;;;;;;7.60;5.50;;;;;;;22.44;70.39;99785.62;91644;1241;68973;-59
2021/08/01 05:25:09;;;;;;;8.60;5.60;;;;;;;23.06;68.35;99779.50;91654;1241;85943;-60
2021/08/01 05:27:16;;;;;;;8.90;6.10;;;;;;;23.01;67.70;99791.39;91648;1240;75450;-64
2021/08/01 05:29:24;;;;;;;7.60;5.50;;;;;;;22.80;67.48;99792.60;91581;1242;82308;-63
2021/08/01 05:31:40;;;;;;;7.90;6.00;;;;;;;23.35;67.20;99785.89;91615;1240;66467;-63
2021/08/01 05:33:48;;;;;;;7.70;5.40;;;;;;;25.09;65.91;99788.94;91641;1242;68258;-60
2021/08/01 05:35:55;;;;;;;9.90;6.30;;;;;;;25.82;62.76;99788.33;91625;1242;85131;-59
2021/08/01 05:38:03;;;;;;;8.30;5.70;;;;;;;27.27;61.72;99794.73;91621;1241;75550;-62
2021/08/01 05:40:15;;;;;;;9.50;5.30;;;;;;;28.46;58.69;99788.26;91604;1246;80031;-63
2021/08/01 05:42:22;;;;;;;5.80;5.30;;;;;;;29.43;55.43;99794.50;91631;1242;66661;-60
2021/08/01 05:44:30;;;;;;;7.50;4.80;;;;;;;30.10;54.68;99803.91;91633;1240;68349;-60
2021/08/01 05:46:37;;;;;;;8.10;5.20;;;;;;;30.39;52.00;99797.58;91627;1245;87309;-60
2021/08/01 05:48:45;;;;;;;5.30;4.60;;;;;;;30.46;50.76;99789.52;91608;1242;74925;-59
2021/08/01 05:50:53;;;;;;;6.00;4.90;;;;;;;30.78;49.77;99786.05;91561;1242;81220;-62
2021/08/01 05:53:00;;;;;;;12.20;4.80;;;;;;;31.26;49.07;99784.74;91623;1242;65637;-64
2021/08/01 05:55:13;;;;;;;9.10;4.60;;;;;;;31.50;47.14;99779.30;91663;1241;67666;-63
2021/08/01 05:57:20;;;;;;;7.50;4.10;;;;;;;31.82;45.82;99784.05;91654;1242;84556;-59
2021/08/01 05:59:28;;;;;;;4.20;3.50;;;;;;;32.60;45.20;99784.79;91662;1241;75306;-60
2021/08/01 06:01:35;;;;;;;5.40;3.50;;;;;;;33.19;43.91;99773.84;91630;1241;81193;-63
2021/08/01 06:03:44;;;;;;;5.80;4.10;;;;;;;33.55;42.25;99778.50;91564;1242;66887;-63
2021/08/01 06:05:52;;;;;;;4.60;3.30;;;;;;;33.89;41.04;99767.84;91651;1241;67624;-62
2021/08/01 06:07:59;;;;;;;6.00;3.60;;;;;;;34.38;39.73;99758.75;91601;1241;86910;-64
2021/08/01 06:10:09;;;;;;;6.30;3.60;;;;;;;34.58;40.28;99764.46;91625;1240;74651;-63
2021/08/01 06:12:17;;;;;;;5.60;3.20;;;;;;;34.29;39.48;99752.51;91648;1241;80705;-63
2021/08/01 06:14:25;;;;;;;5.00;3.60;;;;;;;33.01;39.37;99758.48;91620;1241;65512;-64
2021/08/01 06:16:35;;;;;;;4.10;3.00;;;;;;;31.33;40.51;99769.06;91633;1241;68860;-64
2021/08/01 06:18:44;;;;;;;5.00;3.60;;;;;;;29.93;41.42;99770.52;91604;1242;85681;-63
2021/08/01 06:21:01;;;;;;;6.20;3.50;;;;;;;29.63;42.08;99768.77;91645;1241;74789;-63
2021/08/01 06:23:09;;;;;;;6.40;3.50;;;;;;;30.16;41.94;99768.31;91589;1242;81725;-59
2021/08/01 06:25:16;;;;;;;5.00;3.50;;;;;;;30.34;41.54;99769.86;91619;1240;65401;-60
2021/08/01 06:27:24;;;;;;;6.90;4.50;;;;;;;30.10;41.62;99780.80;91603;1240;70294;-60
2021/08/01 06:29:31;;;;;;;3.60;3.20;;;;;;;29.90;41.75;99770.36;91626;1240;85591;-57
2021/08/01 06:31:39;;;;;;;4.80;3.40;;;;;;;29.84;41.60;99772.51;91635;1240;75532;-60
2021/08/01 06:33:47;;;;;;;4.80;3.50;;;;;;;29.78;41.57;99771.83;91618;1242;82629;-60
2021/08/01 06:35:54;;;;;;;4.90;3.30;;;;;;;29.65;42.16;99772.03;91640;1242;65939;-60
2021/08/01 06:38:05;;;;;;;5.50;3.20;;;;;;;29.34;42.47;99772.23;91604;1240;69552;-57
2021/08/01 06:40:17;;;;;;;7.30;3.10;;;;;;;28.93;43.07;99774.65;91639;1241;86270;-60
2021/08/01 06:42:25;;;;;;;4.50;2.90;;;;;;;28.53;43.69;99783.06;91657;1241;75912;-58
2021/08/01 06:44:32;;;;;;;6.10;3.70;;;;;;;28.34;43.73;99776.14;91612;1241;81753;-59
2021/08/01 06:46:40;;;;;;;3.40;3.10;;;;;;;28.22;44.16;99776.73;91608;1242;65861;-61
2021/08/01 06:48:47;;;;;;;7.30;3.80;;;;;;;28.22;44.43;99781.47;91622;1240;69401;-61
2021/08/01 06:50:55;;;;;;;5.30;3.60;;;;;;;28.18;44.43;99781.31;91646;1240;85771;-60
2021/08/01 06:53:03;;;;;;;4.50;3.10;;;;;;;28.26;44.32;99774.97;91592;1241;74259;-61
2021/08/01 06:55:11;;;;;;;5.80;2.80;;;;;;;28.66;44.85;99776.58;91640;1241;80664;-61
2021/08/01 06:57:22;;;;;;;4.60;2.80;;;;;;;29.13;43.51;99771.23;91607;1242;66432;-59
2021/08/01 06:59:30;;;;;;;5.50;2.80;;;;;;;28.98;43.52;99783.65;91638;1242;69537;-57
2021/08/01 07:01:40;;;;;;;5.10;2.70;;;;;;;28.87;43.65;99781.53;91598;1242;85084;-59
2021/08/01 07:03:48;;;;;;;5.40;2.40;;;;;;;28.58;43.65;99780.13;91648;1241;74585;-59
2021/08/01 07:05:56;;;;;;;5.80;3.30;;;;;;;28.58;43.48;99782.91;91617;1242;82589;-57
2021/08/01 07:08:03;;;;;;;4.80;2.60;;;;;;;28.84;42.75;99782.19;91633;1242;65330;-58
2021/08/01 07:10:12;;;;;;;3.40;2.50;;;;;;;29.71;42.89;99779.89;91653;1242;68236;-61
2021/08/01 07:12:23;;;;;;;5.50;2.60;;;;;;;30.94;41.89;99778.73;91618;1242;84416;-60
2021/08/01 07:14:30;;;;;;;4.50;2.40;;;;;;;32.29;40.10;99764.94;91620;1241;75405;-61
2021/08/01 07:16:45;;;;;;;4.40;2.50;;;;;;;33.42;39.54;99767.70;91608;1242;82739;-60
2021/08/01 07:18:55;;;;;;;7.10;2.70;;;;;;;34.32;37.85;99771.42;91634;1242;66767;-60
2021/08/01 07:21:06;;;;;;;4.30;2.50;;;;;;;34.95;36.26;99765.72;91645;1242;69529;-62
2021/08/01 07:23:13;;;;;;;4.90;2.70;;;;;;;35.93;35.04;99769.00;91603;1242;85473;-62
2021/08/01 07:25:24;;;;;;;3.50;2.30;;;;;;;36.45;34.18;99774.73;91655;1242;73749;-61
2021/08/01 07:27:32;;;;;;;4.30;2.40;;;;;;;36.95;33.56;99772.70;91588;1241;80847;-62
2021/08/01 07:29:43;;;;;;;5.00;2.10;;;;;;;37.14;32.19;99769.81;91661;1242;67109;-63
2021/08/01 07:31:51;;;;;;;3.20;2.30;;;;;;;37.36;31.25;99776.53;91670;1242;68648;-61
2021/08/01 07:34:00;;;;;;;4.40;2.00;;;;;;;37.55;30.61;99782.82;91616;1242;85184;-61
2021/08/01 07:36:08;;;;;;;5.40;2.20;;;;;;;37.90;29.78;99778.81;91379;1244;74902;-61
2021/08/01 07:38:16;;;;;;;4.30;1.70;;;;;;;38.07;29.03;99776.19;91499;1242;80237;-60
2021/08/01 07:40:23;;;;;;;2.30;1.70;;;;;;;38.08;29.20;99776.97;91517;1242;66197;-63
2021/08/01 07:42:31;;;;;;;3.00;2.00;;;;;;;38.31;28.45;99778.42;91602;1242;68382;-62
2021/08/01 07:44:47;;;;;;;4.80;1.80;;;;;;;38.67;28.33;99770.25;91497;1242;85573;-63
2021/08/01 07:46:55;;;;;;;5.90;2.30;;;;;;;39.24;27.98;99762.96;91645;1242;74837;-60
2021/08/01 07:49:03;;;;;;;4.00;2.30;;;;;;;38.66;28.33;99765.79;91583;1242;80130;-59
2021/08/01 07:51:10;;;;;;;4.00;2.00;;;;;;;37.40;27.79;99761.28;91616;1242;66088;-60
2021/08/01 07:53:17;;;;;;;4.50;2.10;;;;;;;36.09;27.80;99752.84;91579;1243;68910;-62
2021/08/01 07:55:26;;;;;;;3.20;2.00;;;;;;;35.61;28.51;99756.31;91629;1242;84426;-63
2021/08/01 07:57:37;;;;;;;2.30;1.90;;;;;;;34.75;29.79;99761.27;91592;1242;74097;-58
2021/08/01 07:59:44;;;;;;;3.90;1.90;;;;;;;33.79;30.69;99766.37;91626;1241;80215;-58
2021/08/01 08:01:52;;;;;;;2.80;2.00;;;;;;;33.73;31.97;99770.63;91607;1242;65506;-61
2021/08/01 08:03:59;;;;;;;2.70;1.90;;;;;;;33.32;31.47;99766.21;91613;1242;67901;-59
2021/08/01 08:06:07;;;;;;;3.30;1.60;;;;;;;32.96;32.10;99772.73;91613;1242;86163;-59
2021/08/01 08:08:18;;;;;;;3.60;1.60;;;;;;;32.46;31.88;99764.72;91607;1242;75401;-65
2021/08/01 08:10:25;;;;;;;5.80;2.30;;;;;;;32.16;32.42;99760.52;91611;1242;80134;-64
2021/08/01 08:12:36;;;;;;;2.80;1.80;;;;;;;31.71;32.68;99774.47;91608;1242;66348;-66
2021/08/01 08:14:44;;;;;;;2.20;1.30;;;;;;;31.34;33.86;99776.27;91638;1242;68517;-66
2021/08/01 08:16:52;;;;;;;2.10;1.70;;;;;;;31.10;33.77;99783.70;91577;1242;85567;-67
2021/08/01 08:19:00;;;;;;;2.40;1.50;;;;;;;30.52;34.23;99785.36;91664;1242;74485;-64
2021/08/01 08:21:08;;;;;;;4.30;1.60;;;;;;;29.82;36.21;99785.95;91636;1242;81861;-65
2021/08/01 08:23:16;;;;;;;3.90;1.50;;;;;;;29.21;36.66;99785.18;91580;1241;67496;-64
2021/08/01 08:25:24;;;;;;;4.50;1.60;;;;;;;28.65;37.52;99788.04;91625;1240;69392;-65
2021/08/01 08:27:32;;;;;;;2.10;1.50;;;;;;;27.98;38.17;99784.61;91590;1242;86116;-65
2021/08/01 08:29:40;;;;;;;5.40;1.40;;;;;;;27.34;39.33;99784.00;91610;1243;74210;-64
2021/08/01 08:31:50;;;;;;;2.60;1.50;;;;;;;26.91;39.82;99780.88;91616;1242;80911;-64
2021/08/01 08:33:58;;;;;;;3.60;2.00;;;;;;;26.51;41.47;99781.71;91591;1240;66074;-64
2021/08/01 08:36:06;;;;;;;5.10;1.70;;;;;;;26.27;42.44;99779.17;91614;1242;69591;-63
2021/08/01 08:38:14;;;;;;;3.50;1.70;;;;;;;26.09;43.84;99776.47;91576;1242;86466;-63
2021/08/01 08:40:26;;;;;;;3.20;1.80;;;;;;;26.09;44.08;99774.52;91589;1242;74860;-65
2021/08/01 08:42:37;;;;;;;5.50;1.90;;;;;;;26.10;44.53;99773.38;91600;1242;80195;-64
2021/08/01 08:44:44;;;;;;;2.50;1.80;;;;;;;26.06;45.21;99761.29;91590;1242;66632;-64
2021/08/01 08:46:53;;;;;;;4.60;2.10;;;;;;;25.98;45.90;99763.95;91593;1242;68878;-63
2021/08/01 08:49:03;;;;;;;3.80;2.10;;;;;;;26.00;46.42;99775.52;91580;1243;86031;-65
2021/08/01 08:51:12;;;;;;;2.80;1.80;;;;;;;26.07;46.77;99775.96;91610;1240;74347;-64
2021/08/01 08:53:25;;;;;;;4.90;2.30;;;;;;;26.13;46.79;99789.41;91623;1242;81813;-64
2021/08/01 08:55:36;;;;;;;4.80;2.00;;;;;;;26.17;47.32;99787.69;91599;1241;65785;-65
2021/08/01 08:57:53;;;;;;;3.70;2.20;;;;;;;26.20;46.61;99773.23;91567;1242;68706;-64
2021/08/01 09:00:07;;;;;;;3.50;2.30;;;;;;;26.19;46.70;99768.80;91578;1245;86052;-64
2021/08/01 09:02:16;;;;;;;4.60;2.20;;;;;;;26.06;46.87;99761.29;91612;1243;73840;-64
2021/08/01 09:04:25;;;;;;;4.70;2.20;;;;;;;26.07;47.41;99762.12;91572;1242;81384;-66
2021/08/01 09:06:36;;;;;;;4.30;2.30;;;;;;;26.11;47.64;99769.49;91591;1242;67358;-65
2021/08/01 09:08:43;;;;;;;5.50;2.20;;;;;;;26.18;47.57;99761.62;91580;1242;70052;-64
2021/08/01 09:10:51;;;;;;;4.10;2.20;;;;;;;26.23;47.52;99761.51;91582;1241;87041;-63
2021/08/01 09:12:59;;;;;;;2.80;2.00;;;;;;;26.21;47.59;99755.47;91576;1242;74681;-65
2021/08/01 09:15:18;;;;;;;6.40;2.60;;;;;;;26.20;47.32;99759.38;91556;1245;81688;-65
2021/08/01 09:17:40;;;;;;;4.40;2.00;;;;;;;26.12;47.48;99759.24;91573;1242;67110;-65
2021/08/01 09:19:49;;;;;;;3.10;1.90;;;;;;;26.06;48.19;99758.52;91536;1242;67956;-64
2021/08/01 09:22:13;;;;;;;3.30;1.90;;;;;;;25.95;48.04;99751.54;91543;1242;86336;-65
2021/08/01 09:24:20;;;;;;;3.70;2.00;;;;;;;25.92;46.48;99746.61;91568;1242;74616;-64
2021/08/01 09:26:41;;;;;;;2.70;1.90;;;;;;;25.89;47.00;99749.98;91560;1242;80856;-62
2021/08/01 09:29:07;;;;;;;4.50;2.00;;;;;;;26.03;47.19;99744.47;91584;1240;65796;-62
2021/08/01 09:31:23;;;;;;;4.30;2.30;;;;;;;26.17;47.28;99737.84;91596;1242;69095;-61
2021/08/01 09:33:42;;;;;;;4.40;1.80;;;;;;;26.38;47.17;99739.05;91570;1242;86068;-61
2021/08/01 09:36:04;;;;;;;2.70;1.90;;;;;;;26.56;46.24;99728.16;91585;1242;74551;-63
2021/08/01 09:38:13;;;;;;;3.60;2.30;;;;;;;26.79;46.76;99729.86;91569;1242;80404;-63
2021/08/01 09:40:20;;;;;;;2.70;1.50;;;;;;;26.91;46.34;99727.38;91583;1243;65359;-63
2021/08/01 09:42:43;;;;;;;2.60;1.60;;;;;;;27.03;45.65;99730.39;91609;1244;69355;-61
2021/08/01 09:44:51;;;;;;;3.20;2.20;;;;;;;27.12;45.87;99736.01;91602;1241;85424;-60
2021/08/01 09:46:59;;;;;;;3.90;2.00;;;;;;;27.23;44.24;99723.53;91554;1242;75617;-59
2021/08/01 09:49:18;;;;;;;4.00;1.50;;;;;;;27.37;43.87;99715.97;91570;1240;82933;-59
2021/08/01 09:51:26;;;;;;;5.50;2.10;;;;;;;27.38;43.56;99706.52;91565;1244;65317;-62
2021/08/01 09:53:36;;;;;;;3.70;1.60;;;;;;;27.28;44.32;99710.36;91587;1245;69184;-59
2021/08/01 09:55:47;;;;;;;3.40;2.10;;;;;;;27.08;43.04;99702.56;91577;1243;85944;-61
2021/08/01 09:57:57;;;;;;;2.90;1.40;;;;;;;26.94;44.65;99705.40;91560;1241;73780;-60
2021/08/01 10:00:12;;;;;;;2.20;1.20;;;;;;;26.74;42.62;99707.78;91586;1243;80342;-57
2021/08/01 10:02:35;;;;;;;3.40;1.50;;;;;;;26.56;43.44;99700.45;91576;1241;67410;-59
2021/08/01 10:04:45;;;;;;;2.30;1.50;;;;;;;26.24;44.51;99707.78;91592;1242;67679;-58
2021/08/01 10:07:06;;;;;;;2.90;1.60;;;;;;;25.91;45.61;99708.98;91591;1244;86403;-60
2021/08/01 10:09:29;;;;;;;3.50;1.60;;;;;;;25.56;46.33;99698.59;91608;1244;73765;-60